Time;durP1;ratioP1;P1;durP2;ratioP2;P2;SDS_P1;SDS_P2;PMS_P1;PMS_P2;Temp;Humidity;BMP_temperature;BMP_pressure;BME280_temperature;BME280_humidity;BME280_pressure;Samples;Min_cycle;Max_cycle;Signal;HPM_P1;HPM_P2
2024/04/15 00:04:01;;;;;;;5.33;2.97;;;6.90;78.70;;;;;;5875153;23;20644;-85
2024/04/15 00:34:01;;;;;;;;;;;;;;;;;;;;;
2024/04/15 00:37:35;;;;;;;4.13;2.90;;;7.20;78.10;;;;;;5872794;23;20759;-85
2024/04/15 01:19:47;;;;;;;6.67;3.50;;;6.50;82.00;;;;;;5717262;24;20573;-84
2024/04/15 01:40:31;;;;;;;7.97;3.37;;;6.40;84.50;;;;;;5677042;24;20197;-85
2024/04/15 02:55:55;;;;;;;5.57;3.53;;;7.50;81.30;;;;;;5453111;25;20624;-85
2024/04/15 03:16:51;;;;;;;4.83;2.93;;;7.50;82.80;;;;;;5672056;24;20693;-86
2024/04/15 03:41:57;;;;;;;6.53;4.03;;;6.80;85.40;;;;;;5713822;24;20200;-85
2024/04/15 04:17:01;;;;;;;6.83;3.50;;;7.50;83.00;;;;;;5806348;24;20358;-87
2024/04/15 04:37:32;;;;;;;8.60;3.93;;;7.90;82.30;;;;;;5761731;24;20587;-85
2024/04/15 04:58:14;;;;;;;12.53;3.87;;;8.30;82.40;;;;;;5858480;24;20178;-86
2024/04/15 06:04:07;;;;;;;8.73;4.80;;;8.80;87.90;;;;;;5730372;24;20576;-88
2024/04/15 06:24:31;;;;;;;5.57;3.90;;;8.60;87.30;;;;;;5828214;24;20672;-83
2024/04/15 07:14:59;;;;;;;7.70;4.20;;;9.20;92.00;;;;;;5606070;24;20796;-83
2024/04/15 07:45:40;;;;;;;6.87;3.80;;;9.70;92.20;;;;;;5773076;24;20935;-84
2024/04/15 09:16:43;;;;;;;3.47;2.77;;;11.30;86.80;;;;;;5754638;23;20488;-83
2024/04/15 09:42:03;;;;;;;4.90;2.23;;;12.10;81.60;;;;;;5631079;24;20469;-86
2024/04/15 10:07:15;;;;;;;7.03;2.70;;;11.80;82.50;;;;;;5458416;25;21221;-85
2024/04/15 11:08:39;;;;;;;6.13;2.70;;;12.60;80.90;;;;;;5666464;24;20197;-83
2024/04/15 12:04:26;;;;;;;4.00;2.00;;;13.80;72.10;;;;;;5649642;24;20975;-83
2024/04/15 12:29:36;;;;;;;4.83;1.80;;;14.20;68.20;;;;;;5745017;24;20164;-85
2024/04/15 13:56:01;;;;;;;4.50;2.10;;;15.60;62.70;;;;;;5905553;23;20167;-83
2024/04/15 14:25:55;;;;;;;3.30;2.00;;;14.50;65.30;;;;;;5659113;24;20593;-83
2024/04/15 14:46:41;;;;;;;4.70;2.03;;;14.20;67.50;;;;;;5726437;24;20220;-81
2024/04/15 15:17:09;;;;;;;5.73;2.30;;;14.10;71.20;;;;;;5716226;24;20568;-85
2024/04/15 15:37:03;;;;;;;2.00;1.80;;;13.60;74.90;;;;;;5609074;24;20386;-84
2024/04/15 15:40:43;;;;;;;3.40;1.97;;;13.60;74.50;;;;;;5680086;24;20207;-82
2024/04/15 16:02:37;;;;;;;2.33;2.10;;;13.10;77.60;;;;;;5729988;24;20244;-84
2024/04/15 16:28:00;;;;;;;5.60;3.00;;;12.90;80.20;;;;;;5739054;24;20470;-82
2024/04/15 16:58:35;;;;;;;7.60;4.33;;;12.30;82.30;;;;;;5671205;24;20178;-83
2024/04/15 17:23:41;;;;;;;6.37;4.13;;;11.60;84.00;;;;;;5759424;24;20599;-81
2024/04/15 17:39:16;;;;;;;6.17;4.57;;;11.30;85.00;;;;;;5665640;24;20219;-85
2024/04/15 18:09:36;;;;;;;8.90;6.07;;;11.10;87.30;;;;;;5773407;23;20276;-81
2024/04/15 18:40:01;;;;;;;6.87;5.57;;;11.00;87.70;;;;;;5778724;23;20208;-83
2024/04/15 19:05:29;;;;;;;10.07;6.87;;;10.70;90.20;;;;;;5631587;24;20230;-85
2024/04/15 19:35:50;;;;;;;7.93;6.50;;;10.60;93.10;;;;;;5658177;24;20539;-84
2024/04/15 20:05:45;;;;;;;10.60;7.70;;;10.20;98.40;;;;;;5616567;24;20873;-85
2024/04/15 20:09:26;;;;;;;12.87;7.93;;;10.20;98.50;;;;;;5630929;24;20708;-83
2024/04/15 21:47:15;;;;;;;18.07;10.27;;;8.50;99.90;;;;;;5323839;25;20203;-82
2024/04/15 22:08:11;;;;;;;13.37;9.40;;;8.10;99.90;;;;;;5629880;24;20351;-83
2024/04/15 22:48:43;;;;;;;15.47;9.47;;;7.70;99.90;;;;;;5905258;23;20674;-83
2024/04/15 23:13:55;;;;;;;19.93;11.53;;;7.30;99.90;;;;;;5796060;23;20185;-84
2024/04/15 23:44:18;;;;;;;16.90;11.50;;;6.80;99.90;;;;;;5542926;24;20187;-81
